Weather history for 0413

Weather History For Prescott AZ

This page updates 5 minutes after midnight. GMT -7

Station: KPRC0 Rows: 26

Return to today's weather
Year Date Temp (°F) Tmin (°F) Tmax (°F) RH% Prcp Snow Wind Gust Pres Sun Cloud
2000 2000-04-13 62.1 48.0 75.0 26 14.2 29.96 1
2001 2001-04-13 48.0 30.0 64.9 43 8.7 30.02 0
2002 2002-04-13 63.9 30 8.0 29.97 0
2003 2003-04-13 55.0 39.2 66.2 45 15.0 29.92 0
2004 2004-04-13 57.6 39.2 71.6 30 11.8 29.96 0
2005 2005-04-13 57.7 39.9 73.0 31 0.0 13.0 29.85 0
2006 2006-04-13 59.9 39.9 77.0 25 0.0 9.3 30.02 0
2007 2007-04-13 49.6 39.0 63.0 39 0.0 16.6 29.85 4
2008 2008-04-13 57.7 35.1 78.1 22 0.0 7.6 30.08 0
2009 2009-04-13 54.3 37.9 69.1 50 0.0 8.5 29.93 0
2010 2010-04-13 46.8 32.0 60.1 44 0.0 7.9 29.83 1
2011 2011-04-13 52.7 39.9 64.9 32 0.0 19.6 29.88 0
2012 2012-04-13 49.5 41.0 55.9 25 0.0 17.7 29.74 4
2013 2013-04-13 59.5 41.0 73.0 26 0.0 18.4 29.72 0
2014 2014-04-13 59.7 48.9 71.1 19 0.0 24.7 29.73 1
2015 2015-04-13 60.3 39.0 77.0 22 0.0 11.8 29.96 0
2016 2016-04-13 55.4 41.0 69.1 57 0.0 9.3 30.01 1
2017 2017-04-13 60.3 44.1 73.0 29 0.0 16.9 29.84 0
2018 2018-04-13 45.7 32.0 55.9 16 0.0 29.3 30.04 0
2019 2019-04-13 49.3 32.0 64.9 50 0.0 11.8 29.89 0
2020 2020-04-13 46.6 39.9 55.9 71 12.5 29.91
2021 2021-04-13 59.7 52.0 68.0 32 0.0 19.5 29.68 0
2022 2022-04-13 43.3 25.0 57.9 17 0.0 12.7 29.97 0
2023 2023-04-13 54.3 46.0 64.9 37 0.0 15.1 29.59 1
2024 2024-04-13 57.2 43.0 68.0 27 0.0 14.2 29.93 0
2025 2025-04-13 62.8 44.1 75.9 14 0.0 12.9 29.84 0
Average Low 39.6
Average High 67.7

Daily High / Low by Year (04/13)

Barometric Pressure by Year (04/13)

Weather data provided by Meteostat